sensor_id;sensor_type;location;lat;lon;timestamp;temperature;humidity
7704;DHT22;3894;49.700;10.770;2023-06-14T00:01:53;17.60;78.40
7704;DHT22;3894;49.700;10.770;2023-06-14T00:04:18;17.60;78.50
7704;DHT22;3894;49.700;10.770;2023-06-14T00:06:46;17.50;78.70
7704;DHT22;3894;49.700;10.770;2023-06-14T00:09:12;17.50;79.60
7704;DHT22;3894;49.700;10.770;2023-06-14T00:11:43;17.40;79.30
7704;DHT22;3894;49.700;10.770;2023-06-14T00:14:10;17.40;79.70
7704;DHT22;3894;49.700;10.770;2023-06-14T00:16:37;17.30;80.00
7704;DHT22;3894;49.700;10.770;2023-06-14T00:19:04;17.30;80.10
7704;DHT22;3894;49.700;10.770;2023-06-14T00:21:31;17.30;80.10
7704;DHT22;3894;49.700;10.770;2023-06-14T00:23:58;17.30;80.20
7704;DHT22;3894;49.700;10.770;2023-06-14T00:26:24;17.30;80.30
7704;DHT22;3894;49.700;10.770;2023-06-14T00:28:51;17.30;80.50
7704;DHT22;3894;49.700;10.770;2023-06-14T00:31:17;17.20;80.70
7704;DHT22;3894;49.700;10.770;2023-06-14T00:33:43;17.10;80.90
7704;DHT22;3894;49.700;10.770;2023-06-14T00:36:08;17.10;81.10
7704;DHT22;3894;49.700;10.770;2023-06-14T00:38:35;17.10;81.40
7704;DHT22;3894;49.700;10.770;2023-06-14T00:41:00;17.00;81.60
7704;DHT22;3894;49.700;10.770;2023-06-14T00:43:26;16.90;81.80
7704;DHT22;3894;49.700;10.770;2023-06-14T00:45:51;16.90;82.20
7704;DHT22;3894;49.700;10.770;2023-06-14T00:48:17;16.90;82.30
7704;DHT22;3894;49.700;10.770;2023-06-14T00:50:45;16.80;82.60
7704;DHT22;3894;49.700;10.770;2023-06-14T00:53:15;16.80;82.50
7704;DHT22;3894;49.700;10.770;2023-06-14T00:55:43;16.80;82.60
7704;DHT22;3894;49.700;10.770;2023-06-14T00:58:09;16.70;82.70
7704;DHT22;3894;49.700;10.770;2023-06-14T01:00:36;16.70;82.90
7704;DHT22;3894;49.700;10.770;2023-06-14T01:03:01;16.70;83.00
7704;DHT22;3894;49.700;10.770;2023-06-14T01:05:27;16.60;83.10
7704;DHT22;3894;49.700;10.770;2023-06-14T01:13:38;16.50;83.80
7704;DHT22;3894;49.700;10.770;2023-06-14T01:16:05;16.50;84.10
7704;DHT22;3894;49.700;10.770;2023-06-14T01:18:32;16.40;84.00
7704;DHT22;3894;49.700;10.770;2023-06-14T01:20:58;16.40;84.30
7704;DHT22;3894;49.700;10.770;2023-06-14T01:23:25;16.40;84.70
7704;DHT22;3894;49.700;10.770;2023-06-14T01:25:57;16.40;84.80
7704;DHT22;3894;49.700;10.770;2023-06-14T01:28:23;16.40;84.80
7704;DHT22;3894;49.700;10.770;2023-06-14T01:30:53;16.30;84.70
7704;DHT22;3894;49.700;10.770;2023-06-14T01:33:26;16.30;85.20
7704;DHT22;3894;49.700;10.770;2023-06-14T01:35:53;16.30;85.60
7704;DHT22;3894;49.700;10.770;2023-06-14T01:38:22;16.30;85.50
7704;DHT22;3894;49.700;10.770;2023-06-14T01:40:50;16.20;85.90
7704;DHT22;3894;49.700;10.770;2023-06-14T01:43:16;16.20;86.10
7704;DHT22;3894;49.700;10.770;2023-06-14T01:45:45;16.20;86.10
7704;DHT22;3894;49.700;10.770;2023-06-14T01:48:12;16.20;86.40
7704;DHT22;3894;49.700;10.770;2023-06-14T01:50:38;16.20;87.50
7704;DHT22;3894;49.700;10.770;2023-06-14T01:53:07;16.10;86.60
7704;DHT22;3894;49.700;10.770;2023-06-14T01:55:33;16.00;87.00
7704;DHT22;3894;49.700;10.770;2023-06-14T01:58:03;16.00;87.30
7704;DHT22;3894;49.700;10.770;2023-06-14T02:00:29;16.00;87.40
7704;DHT22;3894;49.700;10.770;2023-06-14T02:02:54;16.00;87.60
7704;DHT22;3894;49.700;10.770;2023-06-14T02:05:21;15.90;87.70
7704;DHT22;3894;49.700;10.770;2023-06-14T02:07:46;15.90;88.10
7704;DHT22;3894;49.700;10.770;2023-06-14T02:10:13;15.80;88.30
7704;DHT22;3894;49.700;10.770;2023-06-14T02:12:39;15.70;88.50
7704;DHT22;3894;49.700;10.770;2023-06-14T02:15:04;15.70;89.10
7704;DHT22;3894;49.700;10.770;2023-06-14T02:17:31;15.60;89.20
7704;DHT22;3894;49.700;10.770;2023-06-14T02:19:57;15.60;89.50
7704;DHT22;3894;49.700;10.770;2023-06-14T02:22:22;15.60;89.60
7704;DHT22;3894;49.700;10.770;2023-06-14T02:24:48;15.60;89.90
7704;DHT22;3894;49.700;10.770;2023-06-14T02:27:14;15.60;90.10
7704;DHT22;3894;49.700;10.770;2023-06-14T02:29:39;15.60;90.20
7704;DHT22;3894;49.700;10.770;2023-06-14T02:32:05;15.50;90.40
7704;DHT22;3894;49.700;10.770;2023-06-14T02:34:33;15.40;90.50
7704;DHT22;3894;49.700;10.770;2023-06-14T02:37:01;15.40;90.70
7704;DHT22;3894;49.700;10.770;2023-06-14T02:39:29;15.40;90.90
7704;DHT22;3894;49.700;10.770;2023-06-14T02:41:55;15.40;91.10
7704;DHT22;3894;49.700;10.770;2023-06-14T02:44:25;15.40;91.30
7704;DHT22;3894;49.700;10.770;2023-06-14T02:46:52;15.40;91.40
7704;DHT22;3894;49.700;10.770;2023-06-14T02:49:17;15.40;91.50
7704;DHT22;3894;49.700;10.770;2023-06-14T02:51:43;15.30;91.30
7704;DHT22;3894;49.700;10.770;2023-06-14T02:54:08;15.30;91.50
7704;DHT22;3894;49.700;10.770;2023-06-14T02:56:34;15.20;91.60
7704;DHT22;3894;49.700;10.770;2023-06-14T02:59:01;15.20;91.80
7704;DHT22;3894;49.700;10.770;2023-06-14T03:01:27;15.20;92.00
7704;DHT22;3894;49.700;10.770;2023-06-14T03:04:02;15.20;92.20
7704;DHT22;3894;49.700;10.770;2023-06-14T03:06:31;15.20;92.20
7704;DHT22;3894;49.700;10.770;2023-06-14T03:08:58;15.10;92.40
7704;DHT22;3894;49.700;10.770;2023-06-14T03:11:30;15.10;92.40
7704;DHT22;3894;49.700;10.770;2023-06-14T03:13:56;15.10;92.50
7704;DHT22;3894;49.700;10.770;2023-06-14T03:16:22;15.00;92.70
7704;DHT22;3894;49.700;10.770;2023-06-14T03:18:50;15.00;92.70
7704;DHT22;3894;49.700;10.770;2023-06-14T03:21:17;15.00;92.90
7704;DHT22;3894;49.700;10.770;2023-06-14T03:23:43;14.90;93.10
7704;DHT22;3894;49.700;10.770;2023-06-14T03:26:10;14.80;93.10
7704;DHT22;3894;49.700;10.770;2023-06-14T03:28:43;14.80;93.40
7704;DHT22;3894;49.700;10.770;2023-06-14T03:31:09;14.70;93.70
7704;DHT22;3894;49.700;10.770;2023-06-14T03:33:35;14.70;93.90
7704;DHT22;3894;49.700;10.770;2023-06-14T03:36:02;14.70;93.90
7704;DHT22;3894;49.700;10.770;2023-06-14T03:38:28;14.70;93.80
7704;DHT22;3894;49.700;10.770;2023-06-14T03:40:53;14.70;94.00
7704;DHT22;3894;49.700;10.770;2023-06-14T03:43:19;14.70;94.00
7704;DHT22;3894;49.700;10.770;2023-06-14T03:45:45;14.70;94.00
7704;DHT22;3894;49.700;10.770;2023-06-14T03:48:11;14.70;94.20
7704;DHT22;3894;49.700;10.770;2023-06-14T03:50:36;14.70;94.30
7704;DHT22;3894;49.700;10.770;2023-06-14T03:53:06;14.70;94.40
7704;DHT22;3894;49.700;10.770;2023-06-14T03:55:31;14.70;94.40
7704;DHT22;3894;49.700;10.770;2023-06-14T03:57:58;14.70;94.50
7704;DHT22;3894;49.700;10.770;2023-06-14T04:00:24;14.70;94.60
7704;DHT22;3894;49.700;10.770;2023-06-14T04:02:49;14.70;94.70
7704;DHT22;3894;49.700;10.770;2023-06-14T04:05:15;14.70;94.80
7704;DHT22;3894;49.700;10.770;2023-06-14T04:07:42;14.70;94.80
7704;DHT22;3894;49.700;10.770;2023-06-14T04:10:11;14.70;94.90
7704;DHT22;3894;49.700;10.770;2023-06-14T04:12:37;14.70;95.00
7704;DHT22;3894;49.700;10.770;2023-06-14T04:15:03;14.70;95.10
7704;DHT22;3894;49.700;10.770;2023-06-14T04:17:29;14.80;95.30
7704;DHT22;3894;49.700;10.770;2023-06-14T04:19:55;14.70;95.30
7704;DHT22;3894;49.700;10.770;2023-06-14T04:22:20;14.60;95.50
7704;DHT22;3894;49.700;10.770;2023-06-14T04:24:46;14.60;95.60
7704;DHT22;3894;49.700;10.770;2023-06-14T04:27:12;14.70;95.80
7704;DHT22;3894;49.700;10.770;2023-06-14T04:29:39;14.80;95.80
7704;DHT22;3894;49.700;10.770;2023-06-14T04:32:06;14.80;95.70
7704;DHT22;3894;49.700;10.770;2023-06-14T04:34:35;14.80;95.90
7704;DHT22;3894;49.700;10.770;2023-06-14T04:37:02;14.70;95.70
7704;DHT22;3894;49.700;10.770;2023-06-14T04:39:28;14.70;96.20
7704;DHT22;3894;49.700;10.770;2023-06-14T04:41:54;14.80;96.40
7704;DHT22;3894;49.700;10.770;2023-06-14T04:44:23;14.80;96.20
7704;DHT22;3894;49.700;10.770;2023-06-14T04:46:56;14.90;96.40
7704;DHT22;3894;49.700;10.770;2023-06-14T04:49:21;15.00;96.40
7704;DHT22;3894;49.700;10.770;2023-06-14T04:51:49;15.10;96.40
7704;DHT22;3894;49.700;10.770;2023-06-14T04:54:25;15.20;96.40
7704;DHT22;3894;49.700;10.770;2023-06-14T04:56:51;15.20;96.20
7704;DHT22;3894;49.700;10.770;2023-06-14T04:59:18;15.30;96.40
7704;DHT22;3894;49.700;10.770;2023-06-14T05:01:45;15.50;96.40
7704;DHT22;3894;49.700;10.770;2023-06-14T05:04:15;16.00;96.00
7704;DHT22;3894;49.700;10.770;2023-06-14T05:06:42;16.40;95.60
7704;DHT22;3894;49.700;10.770;2023-06-14T05:09:10;16.70;95.10
7704;DHT22;3894;49.700;10.770;2023-06-14T05:11:36;16.90;94.70
7704;DHT22;3894;49.700;10.770;2023-06-14T05:14:01;16.80;94.70
7704;DHT22;3894;49.700;10.770;2023-06-14T05:16:27;16.80;94.80
7704;DHT22;3894;49.700;10.770;2023-06-14T05:18:54;16.80;94.80
7704;DHT22;3894;49.700;10.770;2023-06-14T05:21:20;16.90;94.80
7704;DHT22;3894;49.700;10.770;2023-06-14T05:23:46;17.10;94.70
7704;DHT22;3894;49.700;10.770;2023-06-14T05:26:11;17.10;94.50
7704;DHT22;3894;49.700;10.770;2023-06-14T05:28:37;17.20;94.60
7704;DHT22;3894;49.700;10.770;2023-06-14T05:31:02;17.40;94.40
7704;DHT22;3894;49.700;10.770;2023-06-14T05:33:28;17.50;94.20
7704;DHT22;3894;49.700;10.770;2023-06-14T05:35:54;17.60;94.20
7704;DHT22;3894;49.700;10.770;2023-06-14T05:38:20;17.70;94.10
7704;DHT22;3894;49.700;10.770;2023-06-14T05:40:46;17.80;93.90
7704;DHT22;3894;49.700;10.770;2023-06-14T05:43:12;17.80;93.80
7704;DHT22;3894;49.700;10.770;2023-06-14T05:45:37;17.80;93.70
7704;DHT22;3894;49.700;10.770;2023-06-14T05:48:03;17.90;93.50
7704;DHT22;3894;49.700;10.770;2023-06-14T05:50:29;18.00;93.50
7704;DHT22;3894;49.700;10.770;2023-06-14T05:52:54;18.10;93.50
7704;DHT22;3894;49.700;10.770;2023-06-14T05:55:20;18.20;93.30
7704;DHT22;3894;49.700;10.770;2023-06-14T05:57:46;18.40;93.40
7704;DHT22;3894;49.700;10.770;2023-06-14T06:00:13;18.50;93.20
7704;DHT22;3894;49.700;10.770;2023-06-14T06:02:43;18.50;92.90
7704;DHT22;3894;49.700;10.770;2023-06-14T06:05:11;18.50;93.10
7704;DHT22;3894;49.700;10.770;2023-06-14T06:07:37;18.60;93.40
7704;DHT22;3894;49.700;10.770;2023-06-14T06:10:05;18.80;93.20
7704;DHT22;3894;49.700;10.770;2023-06-14T06:12:31;18.90;93.00
7704;DHT22;3894;49.700;10.770;2023-06-14T06:14:58;19.00;93.10
7704;DHT22;3894;49.700;10.770;2023-06-14T06:17:25;19.20;92.80
7704;DHT22;3894;49.700;10.770;2023-06-14T06:19:50;19.20;92.70
7704;DHT22;3894;49.700;10.770;2023-06-14T06:22:16;19.20;92.70
7704;DHT22;3894;49.700;10.770;2023-06-14T06:24:42;19.30;92.60
7704;DHT22;3894;49.700;10.770;2023-06-14T06:27:08;19.40;92.50
7704;DHT22;3894;49.700;10.770;2023-06-14T06:29:34;19.50;92.60
7704;DHT22;3894;49.700;10.770;2023-06-14T06:32:00;19.20;92.40
7704;DHT22;3894;49.700;10.770;2023-06-14T06:34:26;18.70;92.60
7704;DHT22;3894;49.700;10.770;2023-06-14T06:36:51;18.30;93.50
7704;DHT22;3894;49.700;10.770;2023-06-14T06:39:17;18.60;93.90
7704;DHT22;3894;49.700;10.770;2023-06-14T06:41:42;18.80;93.80
7704;DHT22;3894;49.700;10.770;2023-06-14T06:44:08;19.20;93.80
7704;DHT22;3894;49.700;10.770;2023-06-14T06:46:36;19.30;93.10
7704;DHT22;3894;49.700;10.770;2023-06-14T06:49:05;18.90;93.00
7704;DHT22;3894;49.700;10.770;2023-06-14T06:51:31;18.50;93.10
7704;DHT22;3894;49.700;10.770;2023-06-14T06:53:57;18.30;93.40
7704;DHT22;3894;49.700;10.770;2023-06-14T06:56:22;18.50;93.70
7704;DHT22;3894;49.700;10.770;2023-06-14T06:58:52;18.60;93.20
7704;DHT22;3894;49.700;10.770;2023-06-14T07:01:18;18.40;93.40
7704;DHT22;3894;49.700;10.770;2023-06-14T07:03:45;18.40;94.00
7704;DHT22;3894;49.700;10.770;2023-06-14T07:06:11;18.30;93.50
7704;DHT22;3894;49.700;10.770;2023-06-14T07:08:37;18.40;93.30
7704;DHT22;3894;49.700;10.770;2023-06-14T07:11:05;18.40;92.90
7704;DHT22;3894;49.700;10.770;2023-06-14T07:13:31;18.40;93.00
7704;DHT22;3894;49.700;10.770;2023-06-14T07:16:00;18.90;93.00
7704;DHT22;3894;49.700;10.770;2023-06-14T07:18:29;19.50;92.30
7704;DHT22;3894;49.700;10.770;2023-06-14T07:20:56;20.00;91.70
7704;DHT22;3894;49.700;10.770;2023-06-14T07:23:22;20.30;91.00
7704;DHT22;3894;49.700;10.770;2023-06-14T07:25:48;20.40;90.90
7704;DHT22;3894;49.700;10.770;2023-06-14T07:28:16;20.70;90.60
7704;DHT22;3894;49.700;10.770;2023-06-14T07:30:42;20.90;90.10
7704;DHT22;3894;49.700;10.770;2023-06-14T07:33:08;21.00;89.50
7704;DHT22;3894;49.700;10.770;2023-06-14T07:35:35;21.20;89.40
7704;DHT22;3894;49.700;10.770;2023-06-14T07:38:00;21.30;88.70
7704;DHT22;3894;49.700;10.770;2023-06-14T07:40:26;21.40;88.00
7704;DHT22;3894;49.700;10.770;2023-06-14T07:42:52;21.40;87.10
7704;DHT22;3894;49.700;10.770;2023-06-14T07:45:20;21.50;87.20
7704;DHT22;3894;49.700;10.770;2023-06-14T07:47:45;21.60;86.70
7704;DHT22;3894;49.700;10.770;2023-06-14T07:50:11;21.70;86.20
7704;DHT22;3894;49.700;10.770;2023-06-14T07:52:38;21.90;85.70
7704;DHT22;3894;49.700;10.770;2023-06-14T07:55:04;22.00;85.40
7704;DHT22;3894;49.700;10.770;2023-06-14T07:57:29;22.10;84.80
7704;DHT22;3894;49.700;10.770;2023-06-14T07:59:55;22.00;84.20
7704;DHT22;3894;49.700;10.770;2023-06-14T08:02:20;22.10;84.30
7704;DHT22;3894;49.700;10.770;2023-06-14T08:04:46;22.10;83.70
7704;DHT22;3894;49.700;10.770;2023-06-14T08:07:13;22.20;83.80
7704;DHT22;3894;49.700;10.770;2023-06-14T08:09:39;22.40;83.70
7704;DHT22;3894;49.700;10.770;2023-06-14T08:12:06;22.50;83.60
7704;DHT22;3894;49.700;10.770;2023-06-14T08:14:39;22.60;83.50
7704;DHT22;3894;49.700;10.770;2023-06-14T08:17:05;22.80;82.50
7704;DHT22;3894;49.700;10.770;2023-06-14T08:19:30;22.90;82.00
7704;DHT22;3894;49.700;10.770;2023-06-14T08:21:56;23.10;82.30
7704;DHT22;3894;49.700;10.770;2023-06-14T08:24:22;23.00;81.30
7704;DHT22;3894;49.700;10.770;2023-06-14T08:26:53;22.80;81.80
7704;DHT22;3894;49.700;10.770;2023-06-14T08:29:18;22.80;82.10
7704;DHT22;3894;49.700;10.770;2023-06-14T08:31:44;22.90;81.90
7704;DHT22;3894;49.700;10.770;2023-06-14T08:34:10;23.10;80.40
7704;DHT22;3894;49.700;10.770;2023-06-14T08:36:36;23.10;79.70
7704;DHT22;3894;49.700;10.770;2023-06-14T08:39:02;23.00;79.80
7704;DHT22;3894;49.700;10.770;2023-06-14T08:41:28;23.10;80.40
7704;DHT22;3894;49.700;10.770;2023-06-14T08:43:55;23.20;79.80
7704;DHT22;3894;49.700;10.770;2023-06-14T08:46:21;23.40;79.80
7704;DHT22;3894;49.700;10.770;2023-06-14T08:48:51;23.50;79.20
7704;DHT22;3894;49.700;10.770;2023-06-14T08:51:21;23.60;78.70
7704;DHT22;3894;49.700;10.770;2023-06-14T08:53:55;23.50;78.10
7704;DHT22;3894;49.700;10.770;2023-06-14T08:56:28;23.40;78.60
7704;DHT22;3894;49.700;10.770;2023-06-14T08:58:55;23.50;78.90
7704;DHT22;3894;49.700;10.770;2023-06-14T09:01:22;23.60;78.10
7704;DHT22;3894;49.700;10.770;2023-06-14T09:03:49;23.70;77.70
7704;DHT22;3894;49.700;10.770;2023-06-14T09:06:15;23.80;78.40
7704;DHT22;3894;49.700;10.770;2023-06-14T09:08:42;23.90;78.00
7704;DHT22;3894;49.700;10.770;2023-06-14T09:11:13;24.10;78.20
7704;DHT22;3894;49.700;10.770;2023-06-14T09:13:40;24.20;77.80
7704;DHT22;3894;49.700;10.770;2023-06-14T09:16:06;24.20;77.10
7704;DHT22;3894;49.700;10.770;2023-06-14T09:18:44;24.30;77.00
7704;DHT22;3894;49.700;10.770;2023-06-14T09:21:16;24.40;77.50
7704;DHT22;3894;49.700;10.770;2023-06-14T09:23:43;24.50;75.20
7704;DHT22;3894;49.700;10.770;2023-06-14T09:26:11;24.50;75.20
7704;DHT22;3894;49.700;10.770;2023-06-14T09:28:48;24.50;73.90
7704;DHT22;3894;49.700;10.770;2023-06-14T09:31:15;24.60;73.70
7704;DHT22;3894;49.700;10.770;2023-06-14T09:33:46;24.70;74.20
7704;DHT22;3894;49.700;10.770;2023-06-14T09:36:16;24.90;74.10
7704;DHT22;3894;49.700;10.770;2023-06-14T09:39:01;25.00;72.80
7704;DHT22;3894;49.700;10.770;2023-06-14T09:41:41;25.00;73.60
7704;DHT22;3894;49.700;10.770;2023-06-14T09:44:08;25.10;72.50
7704;DHT22;3894;49.700;10.770;2023-06-14T09:46:35;25.20;71.50
7704;DHT22;3894;49.700;10.770;2023-06-14T09:49:01;25.20;70.40
7704;DHT22;3894;49.700;10.770;2023-06-14T09:51:28;25.20;70.20
7704;DHT22;3894;49.700;10.770;2023-06-14T09:54:01;25.20;70.80
7704;DHT22;3894;49.700;10.770;2023-06-14T09:56:31;25.30;71.20
7704;DHT22;3894;49.700;10.770;2023-06-14T09:58:57;25.60;72.10
7704;DHT22;3894;49.700;10.770;2023-06-14T10:01:29;25.80;71.10
7704;DHT22;3894;49.700;10.770;2023-06-14T10:04:02;26.00;70.10
7704;DHT22;3894;49.700;10.770;2023-06-14T10:06:29;26.00;69.20
7704;DHT22;3894;49.700;10.770;2023-06-14T10:08:59;26.00;68.70
7704;DHT22;3894;49.700;10.770;2023-06-14T10:11:26;26.10;68.90
7704;DHT22;3894;49.700;10.770;2023-06-14T10:13:52;25.50;68.70
7704;DHT22;3894;49.700;10.770;2023-06-14T10:22:26;24.50;70.40
7704;DHT22;3894;49.700;10.770;2023-06-14T10:24:55;24.60;70.50
7704;DHT22;3894;49.700;10.770;2023-06-14T10:27:21;24.40;70.30
7704;DHT22;3894;49.700;10.770;2023-06-14T10:32:18;24.50;70.40
7704;DHT22;3894;49.700;10.770;2023-06-14T10:34:44;25.20;71.30
7704;DHT22;3894;49.700;10.770;2023-06-14T10:37:14;25.40;69.30
7704;DHT22;3894;49.700;10.770;2023-06-14T10:39:40;25.00;69.50
7704;DHT22;3894;49.700;10.770;2023-06-14T10:42:11;25.20;70.00
7704;DHT22;3894;49.700;10.770;2023-06-14T10:44:44;25.70;69.00
7704;DHT22;3894;49.700;10.770;2023-06-14T10:47:23;26.10;67.80
7704;DHT22;3894;49.700;10.770;2023-06-14T10:52:28;25.20;67.80
7704;DHT22;3894;49.700;10.770;2023-06-14T10:57:55;25.00;68.40
7704;DHT22;3894;49.700;10.770;2023-06-14T11:00:23;24.90;69.30
7704;DHT22;3894;49.700;10.770;2023-06-14T11:08:38;24.30;68.30
7704;DHT22;3894;49.700;10.770;2023-06-14T11:11:07;24.20;68.80
7704;DHT22;3894;49.700;10.770;2023-06-14T11:13:33;24.10;69.20
7704;DHT22;3894;49.700;10.770;2023-06-14T11:15:58;24.10;69.20
7704;DHT22;3894;49.700;10.770;2023-06-14T11:18:24;24.60;69.30
7704;DHT22;3894;49.700;10.770;2023-06-14T11:20:50;25.30;68.00
7704;DHT22;3894;49.700;10.770;2023-06-14T11:23:16;25.30;66.80
7704;DHT22;3894;49.700;10.770;2023-06-14T11:25:41;24.90;66.20
7704;DHT22;3894;49.700;10.770;2023-06-14T11:28:07;24.70;67.70
7704;DHT22;3894;49.700;10.770;2023-06-14T11:30:33;24.60;67.60
7704;DHT22;3894;49.700;10.770;2023-06-14T11:32:58;24.40;67.50
7704;DHT22;3894;49.700;10.770;2023-06-14T11:35:25;24.30;67.40
7704;DHT22;3894;49.700;10.770;2023-06-14T11:37:57;24.20;67.00
7704;DHT22;3894;49.700;10.770;2023-06-14T11:40:26;24.20;67.90
7704;DHT22;3894;49.700;10.770;2023-06-14T11:43:00;24.20;67.40
7704;DHT22;3894;49.700;10.770;2023-06-14T11:45:27;24.20;67.90
7704;DHT22;3894;49.700;10.770;2023-06-14T11:47:54;24.90;68.90
7704;DHT22;3894;49.700;10.770;2023-06-14T11:50:22;25.70;66.10
7704;DHT22;3894;49.700;10.770;2023-06-14T11:52:58;25.80;65.70
7704;DHT22;3894;49.700;10.770;2023-06-14T11:55:25;25.60;65.30
7704;DHT22;3894;49.700;10.770;2023-06-14T11:57:53;25.50;65.70
7704;DHT22;3894;49.700;10.770;2023-06-14T12:00:24;25.20;64.30
7704;DHT22;3894;49.700;10.770;2023-06-14T12:02:54;25.10;65.80
7704;DHT22;3894;49.700;10.770;2023-06-14T12:05:22;25.60;65.30
7704;DHT22;3894;49.700;10.770;2023-06-14T12:07:49;25.90;64.10
7704;DHT22;3894;49.700;10.770;2023-06-14T12:10:16;25.90;64.00
7704;DHT22;3894;49.700;10.770;2023-06-14T12:12:42;25.60;63.00
7704;DHT22;3894;49.700;10.770;2023-06-14T12:15:09;25.30;64.20
7704;DHT22;3894;49.700;10.770;2023-06-14T12:17:37;25.40;64.70
7704;DHT22;3894;49.700;10.770;2023-06-14T12:20:11;25.50;64.70
7704;DHT22;3894;49.700;10.770;2023-06-14T12:22:46;25.60;64.70
7704;DHT22;3894;49.700;10.770;2023-06-14T12:27:55;25.60;64.20
7704;DHT22;3894;49.700;10.770;2023-06-14T12:30:21;25.70;63.80
7704;DHT22;3894;49.700;10.770;2023-06-14T12:32:47;26.30;64.80
7704;DHT22;3894;49.700;10.770;2023-06-14T12:35:12;26.40;63.10
7704;DHT22;3894;49.700;10.770;2023-06-14T12:37:38;26.10;63.10
7704;DHT22;3894;49.700;10.770;2023-06-14T12:40:04;25.90;63.00
7704;DHT22;3894;49.700;10.770;2023-06-14T12:42:31;25.80;63.60
7704;DHT22;3894;49.700;10.770;2023-06-14T12:44:57;25.90;63.40
7704;DHT22;3894;49.700;10.770;2023-06-14T12:47:22;25.90;63.40
7704;DHT22;3894;49.700;10.770;2023-06-14T12:49:48;25.80;63.00
7704;DHT22;3894;49.700;10.770;2023-06-14T12:52:13;25.60;63.10
7704;DHT22;3894;49.700;10.770;2023-06-14T12:54:39;25.50;63.30
7704;DHT22;3894;49.700;10.770;2023-06-14T12:57:05;25.30;62.90
7704;DHT22;3894;49.700;10.770;2023-06-14T12:59:31;25.20;64.10
7704;DHT22;3894;49.700;10.770;2023-06-14T13:02:09;25.30;64.00
7704;DHT22;3894;49.700;10.770;2023-06-14T13:04:35;25.40;64.40
7704;DHT22;3894;49.700;10.770;2023-06-14T13:07:00;25.40;63.60
7704;DHT22;3894;49.700;10.770;2023-06-14T13:09:26;25.50;64.30
7704;DHT22;3894;49.700;10.770;2023-06-14T13:11:52;26.00;65.00
7704;DHT22;3894;49.700;10.770;2023-06-14T13:14:17;26.00;63.70
7704;DHT22;3894;49.700;10.770;2023-06-14T13:16:44;25.80;63.40
7704;DHT22;3894;49.700;10.770;2023-06-14T13:19:09;25.70;63.30
7704;DHT22;3894;49.700;10.770;2023-06-14T13:21:35;25.80;63.60
7704;DHT22;3894;49.700;10.770;2023-06-14T13:24:01;25.70;63.40
7704;DHT22;3894;49.700;10.770;2023-06-14T13:26:26;25.80;62.40
7704;DHT22;3894;49.700;10.770;2023-06-14T13:28:52;25.60;60.10
7704;DHT22;3894;49.700;10.770;2023-06-14T13:31:17;25.90;61.70
7704;DHT22;3894;49.700;10.770;2023-06-14T13:33:43;26.50;60.60
7704;DHT22;3894;49.700;10.770;2023-06-14T13:36:09;26.40;59.70
7704;DHT22;3894;49.700;10.770;2023-06-14T13:38:35;26.40;61.10
7704;DHT22;3894;49.700;10.770;2023-06-14T13:41:01;26.30;61.90
7704;DHT22;3894;49.700;10.770;2023-06-14T13:43:26;26.60;62.80
7704;DHT22;3894;49.700;10.770;2023-06-14T13:45:52;26.90;61.50
7704;DHT22;3894;49.700;10.770;2023-06-14T13:48:17;27.10;62.20
7704;DHT22;3894;49.700;10.770;2023-06-14T13:50:44;27.10;61.60
7704;DHT22;3894;49.700;10.770;2023-06-14T13:53:12;26.80;61.50
7704;DHT22;3894;49.700;10.770;2023-06-14T13:55:39;26.50;61.80
7704;DHT22;3894;49.700;10.770;2023-06-14T13:58:05;26.40;61.70
7704;DHT22;3894;49.700;10.770;2023-06-14T14:00:30;26.50;62.20
7704;DHT22;3894;49.700;10.770;2023-06-14T14:02:56;26.50;62.90
7704;DHT22;3894;49.700;10.770;2023-06-14T14:05:22;26.60;62.40
7704;DHT22;3894;49.700;10.770;2023-06-14T14:07:53;26.20;61.30
7704;DHT22;3894;49.700;10.770;2023-06-14T14:10:20;25.80;62.20
7704;DHT22;3894;49.700;10.770;2023-06-14T14:12:46;25.70;62.50
7704;DHT22;3894;49.700;10.770;2023-06-14T14:15:12;25.90;62.40
7704;DHT22;3894;49.700;10.770;2023-06-14T14:17:40;26.10;60.30
7704;DHT22;3894;49.700;10.770;2023-06-14T14:20:06;26.20;58.90
7704;DHT22;3894;49.700;10.770;2023-06-14T14:22:32;26.30;60.00
7704;DHT22;3894;49.700;10.770;2023-06-14T14:24:58;26.50;59.30
7704;DHT22;3894;49.700;10.770;2023-06-14T14:27:25;26.70;59.50
7704;DHT22;3894;49.700;10.770;2023-06-14T14:29:50;26.80;60.00
7704;DHT22;3894;49.700;10.770;2023-06-14T14:32:16;26.70;60.60
7704;DHT22;3894;49.700;10.770;2023-06-14T14:34:41;26.30;60.20
7704;DHT22;3894;49.700;10.770;2023-06-14T14:37:07;25.90;60.70
7704;DHT22;3894;49.700;10.770;2023-06-14T14:39:33;25.70;61.30
7704;DHT22;3894;49.700;10.770;2023-06-14T14:41:58;25.80;61.70
7704;DHT22;3894;49.700;10.770;2023-06-14T14:44:24;25.70;61.90
7704;DHT22;3894;49.700;10.770;2023-06-14T14:46:49;25.60;62.10
7704;DHT22;3894;49.700;10.770;2023-06-14T14:49:15;25.40;62.60
7704;DHT22;3894;49.700;10.770;2023-06-14T14:51:41;25.40;62.20
7704;DHT22;3894;49.700;10.770;2023-06-14T14:54:06;25.50;63.10
7704;DHT22;3894;49.700;10.770;2023-06-14T14:56:32;25.70;62.50
7704;DHT22;3894;49.700;10.770;2023-06-14T14:58:58;25.60;61.90
7704;DHT22;3894;49.700;10.770;2023-06-14T15:01:23;25.70;62.70
7704;DHT22;3894;49.700;10.770;2023-06-14T15:03:49;25.90;61.80
7704;DHT22;3894;49.700;10.770;2023-06-14T15:06:14;25.90;61.10
7704;DHT22;3894;49.700;10.770;2023-06-14T15:08:40;25.90;61.20
7704;DHT22;3894;49.700;10.770;2023-06-14T15:11:06;25.90;61.20
7704;DHT22;3894;49.700;10.770;2023-06-14T15:13:32;25.90;60.50
7704;DHT22;3894;49.700;10.770;2023-06-14T15:15:57;25.90;59.70
7704;DHT22;3894;49.700;10.770;2023-06-14T15:18:23;25.90;60.20
7704;DHT22;3894;49.700;10.770;2023-06-14T15:20:49;25.90;59.70
7704;DHT22;3894;49.700;10.770;2023-06-14T15:23:15;25.90;60.40
7704;DHT22;3894;49.700;10.770;2023-06-14T15:25:45;26.00;60.00
7704;DHT22;3894;49.700;10.770;2023-06-14T15:28:12;26.20;60.10
7704;DHT22;3894;49.700;10.770;2023-06-14T15:30:38;26.30;59.80
7704;DHT22;3894;49.700;10.770;2023-06-14T15:33:04;26.60;60.00
7704;DHT22;3894;49.700;10.770;2023-06-14T15:35:30;26.70;59.70
7704;DHT22;3894;49.700;10.770;2023-06-14T15:37:55;26.80;59.90
7704;DHT22;3894;49.700;10.770;2023-06-14T15:40:21;26.70;60.10
7704;DHT22;3894;49.700;10.770;2023-06-14T15:42:46;26.70;60.00
7704;DHT22;3894;49.700;10.770;2023-06-14T15:45:12;26.70;59.70
7704;DHT22;3894;49.700;10.770;2023-06-14T15:47:38;26.80;59.70
7704;DHT22;3894;49.700;10.770;2023-06-14T15:50:05;26.90;60.20
7704;DHT22;3894;49.700;10.770;2023-06-14T15:52:33;26.80;60.00
7704;DHT22;3894;49.700;10.770;2023-06-14T15:54:59;26.50;60.40
7704;DHT22;3894;49.700;10.770;2023-06-14T15:57:24;26.20;60.50
7704;DHT22;3894;49.700;10.770;2023-06-14T15:59:51;25.90;60.90
7704;DHT22;3894;49.700;10.770;2023-06-14T16:02:17;25.80;60.80
7704;DHT22;3894;49.700;10.770;2023-06-14T16:04:42;25.50;60.80
7704;DHT22;3894;49.700;10.770;2023-06-14T16:07:08;25.40;61.10
7704;DHT22;3894;49.700;10.770;2023-06-14T16:09:33;25.30;61.40
7704;DHT22;3894;49.700;10.770;2023-06-14T16:11:59;25.20;61.30